Time;durP1;ratioP1;P1;durP2;ratioP2;P2;SDS_P1;SDS_P2;PMS_P1;PMS_P2;Temp;Humidity;BMP_temperature;BMP_pressure;BME280_temperature;BME280_humidity;BME280_pressure;Samples;Min_cycle;Max_cycle;Signal;HPM_P1;HPM_P2
2021/09/10 00:00:21;;;;;;;12.52;6.35;;;22.10;98.00;;;;;;5092555;28;20080;-60
2021/09/10 00:02:46;;;;;;;9.70;7.25;;;22.00;98.10;;;;;;5092731;28;20107;-60
2021/09/10 00:05:12;;;;;;;9.15;6.07;;;21.90;98.20;;;;;;5092002;28;20118;-60
2021/09/10 00:07:38;;;;;;;9.15;6.25;;;22.00;98.10;;;;;;5092105;28;20026;-60
2021/09/10 00:10:04;;;;;;;13.45;7.25;;;22.00;98.20;;;;;;5091925;28;20020;-61
2021/09/10 00:12:30;;;;;;;9.63;6.63;;;22.00;98.10;;;;;;5092806;28;20109;-61
2021/09/10 00:14:56;;;;;;;7.18;6.03;;;22.00;98.20;;;;;;5090954;28;20024;-61
2021/09/10 00:17:21;;;;;;;13.40;6.35;;;22.00;98.30;;;;;;5092232;28;20307;-61
2021/09/10 00:19:47;;;;;;;8.25;5.50;;;21.90;98.30;;;;;;5090986;28;20035;-60
2021/09/10 00:22:13;;;;;;;7.65;6.32;;;22.00;98.20;;;;;;5091364;28;20035;-60
2021/09/10 00:24:38;;;;;;;12.38;7.05;;;21.90;98.40;;;;;;5091783;28;20097;-60
2021/09/10 00:27:04;;;;;;;13.90;6.90;;;21.90;98.40;;;;;;5089821;28;20104;-61
2021/09/10 00:29:30;;;;;;;6.93;5.65;;;21.80;98.40;;;;;;5091618;28;20349;-60
2021/09/10 00:31:56;;;;;;;10.52;7.20;;;21.90;98.50;;;;;;5091548;28;20031;-60
2021/09/10 00:34:21;;;;;;;8.95;6.38;;;21.90;98.40;;;;;;5092233;28;20428;-61
2021/09/10 00:36:47;;;;;;;11.32;6.13;;;21.80;98.50;;;;;;5091783;28;20024;-60
2021/09/10 00:39:13;;;;;;;8.85;6.68;;;21.90;98.60;;;;;;5091643;28;20099;-60
2021/09/10 00:41:39;;;;;;;8.90;6.30;;;21.90;98.50;;;;;;5090692;28;20035;-61
2021/09/10 00:44:05;;;;;;;12.07;7.28;;;22.00;98.40;;;;;;5091064;28;20465;-61
2021/09/10 00:46:31;;;;;;;10.70;6.95;;;21.80;98.50;;;;;;5091682;28;20035;-61
2021/09/10 00:48:58;;;;;;;10.50;6.78;;;21.70;98.70;;;;;;5091041;28;20032;-61
2021/09/10 00:51:23;;;;;;;8.80;6.50;;;21.60;99.10;;;;;;5090481;28;20028;-61
2021/09/10 00:53:49;;;;;;;7.07;6.20;;;21.70;98.70;;;;;;5091919;28;20085;-61
2021/09/10 00:56:15;;;;;;;7.90;5.90;;;21.70;98.70;;;;;;5091096;28;20024;-61
2021/09/10 00:58:41;;;;;;;7.75;6.82;;;21.60;98.80;;;;;;5091593;28;20060;-61
2021/09/10 01:01:06;;;;;;;7.85;6.35;;;21.60;98.70;;;;;;5091368;28;20106;-60
2021/09/10 01:03:32;;;;;;;13.95;7.18;;;21.80;98.60;;;;;;5090401;28;20109;-61
2021/09/10 01:05:58;;;;;;;10.15;7.57;;;21.80;98.50;;;;;;5091350;28;20032;-62
2021/09/10 01:08:26;;;;;;;9.25;7.13;;;21.70;98.50;;;;;;5091628;28;20050;-61
2021/09/10 01:10:53;;;;;;;8.20;7.05;;;21.70;98.60;;;;;;5091384;28;20027;-62
2021/09/10 01:13:19;;;;;;;8.93;6.68;;;21.80;98.60;;;;;;5091166;28;20123;-62
2021/09/10 01:15:45;;;;;;;8.63;6.53;;;21.70;98.70;;;;;;5090223;28;20024;-61
2021/09/10 01:18:10;;;;;;;7.65;6.85;;;21.70;98.70;;;;;;5090954;28;20069;-61
2021/09/10 01:20:36;;;;;;;7.97;6.43;;;21.70;98.60;;;;;;5090318;28;20020;-61
2021/09/10 01:23:02;;;;;;;9.60;7.10;;;21.60;98.70;;;;;;5091007;28;20068;-61
2021/09/10 01:25:28;;;;;;;8.90;6.85;;;21.50;98.80;;;;;;5089640;28;20511;-60
2021/09/10 01:27:58;;;;;;;9.82;8.15;;;21.50;99.10;;;;;;5091401;28;20449;-60
2021/09/10 01:30:27;;;;;;;13.18;7.28;;;21.50;99.10;;;;;;5089917;28;20030;-60
2021/09/10 01:32:53;;;;;;;10.85;6.75;;;21.40;99.60;;;;;;5089627;28;20036;-60
2021/09/10 01:35:19;;;;;;;11.77;6.82;;;21.40;99.20;;;;;;5089101;28;20028;-60
2021/09/10 01:37:45;;;;;;;9.60;6.95;;;21.50;99.20;;;;;;5091193;28;20130;-60
2021/09/10 01:40:12;;;;;;;8.85;6.20;;;21.40;99.00;;;;;;5091967;28;20127;-61
2021/09/10 01:42:38;;;;;;;12.77;6.53;;;21.50;98.90;;;;;;5095664;28;20056;-61
2021/09/10 01:45:06;;;;;;;9.43;6.63;;;21.40;99.00;;;;;;5094687;28;20491;-61
2021/09/10 01:47:34;;;;;;;10.07;6.10;;;21.50;99.00;;;;;;5095227;28;20115;-61
2021/09/10 01:50:00;;;;;;;11.65;7.30;;;21.40;98.90;;;;;;5094710;28;20039;-61
2021/09/10 01:52:26;;;;;;;14.90;6.85;;;21.50;98.80;;;;;;5095421;28;20024;-61
2021/09/10 01:54:51;;;;;;;9.05;6.63;;;21.40;98.80;;;;;;5094057;28;20031;-61
2021/09/10 01:57:17;;;;;;;9.55;6.78;;;21.30;99.00;;;;;;5094635;28;20032;-61
2021/09/10 01:59:44;;;;;;;11.02;6.30;;;21.40;99.00;;;;;;5095246;28;20020;-60
2021/09/10 02:02:10;;;;;;;7.45;6.18;;;21.30;99.00;;;;;;5094513;28;20043;-61
2021/09/10 02:04:37;;;;;;;8.10;6.75;;;21.40;99.10;;;;;;5095048;28;20043;-60
2021/09/10 02:07:04;;;;;;;8.80;6.70;;;21.30;99.00;;;;;;5076225;28;20472;-61
2021/09/10 02:09:29;;;;;;;8.48;6.63;;;21.30;99.20;;;;;;5094877;28;20028;-60
2021/09/10 02:11:55;;;;;;;9.18;6.47;;;21.40;99.00;;;;;;5094658;28;20027;-61
2021/09/10 02:14:21;;;;;;;7.45;6.55;;;21.30;99.20;;;;;;5094608;28;20106;-61
2021/09/10 02:16:46;;;;;;;8.43;7.07;;;21.30;99.20;;;;;;5095228;28;20036;-61
2021/09/10 02:19:12;;;;;;;9.05;6.47;;;21.20;99.20;;;;;;5094349;28;20028;-61
2021/09/10 02:21:38;;;;;;;7.38;6.68;;;21.20;99.30;;;;;;5076722;28;20036;-61
2021/09/10 02:24:04;;;;;;;9.00;7.05;;;21.00;99.50;;;;;;5092514;28;20036;-61
2021/09/10 02:26:30;;;;;;;9.73;6.55;;;21.00;99.60;;;;;;5094852;28;20024;-60
2021/09/10 02:28:56;;;;;;;8.40;6.47;;;21.10;99.70;;;;;;5094596;28;20044;-61
2021/09/10 02:31:21;;;;;;;7.63;6.82;;;21.10;99.60;;;;;;5092534;28;20119;-61
2021/09/10 02:33:47;;;;;;;7.95;6.90;;;21.00;99.90;;;;;;5094801;28;20032;-61
2021/09/10 02:36:13;;;;;;;9.18;6.13;;;21.00;99.70;;;;;;5093909;28;20024;-61
2021/09/10 02:38:38;;;;;;;8.73;7.15;;;21.00;99.70;;;;;;5092873;28;20443;-61
2021/09/10 02:41:04;;;;;;;9.88;6.53;;;21.10;99.80;;;;;;5092295;28;20024;-61
2021/09/10 02:43:30;;;;;;;8.85;7.07;;;21.10;99.60;;;;;;5094349;28;20032;-60
2021/09/10 02:45:55;;;;;;;7.43;6.72;;;21.00;99.60;;;;;;5094254;28;20406;-59
2021/09/10 02:48:21;;;;;;;8.75;6.78;;;20.90;99.70;;;;;;5092237;28;20043;-61
2021/09/10 02:50:46;;;;;;;9.57;6.38;;;20.90;99.80;;;;;;5092852;28;20020;-61
2021/09/10 02:53:12;;;;;;;7.47;6.38;;;21.00;99.70;;;;;;5093223;28;20108;-61
2021/09/10 02:55:38;;;;;;;9.68;6.10;;;21.00;99.70;;;;;;5092895;28;20027;-61
2021/09/10 02:58:03;;;;;;;12.05;6.80;;;21.00;99.90;;;;;;5093685;28;20483;-61
2021/09/10 03:00:29;;;;;;;9.50;6.90;;;21.00;99.70;;;;;;5094145;28;20032;-61
2021/09/10 03:02:55;;;;;;;10.90;6.82;;;21.00;99.70;;;;;;5094095;28;20036;-61
2021/09/10 03:05:20;;;;;;;9.88;6.40;;;20.90;99.80;;;;;;5092034;28;20040;-60
2021/09/10 03:07:46;;;;;;;7.05;6.35;;;20.80;99.90;;;;;;5093387;28;20029;-60
2021/09/10 03:10:12;;;;;;;6.97;6.18;;;20.90;99.90;;;;;;5092708;28;20433;-60
2021/09/10 03:12:39;;;;;;;7.95;6.72;;;20.90;99.90;;;;;;5093452;28;20028;-60
2021/09/10 03:15:08;;;;;;;16.40;7.43;;;20.90;99.90;;;;;;5093023;28;20073;-61
2021/09/10 03:17:34;;;;;;;12.80;6.60;;;20.80;99.90;;;;;;5093553;28;20083;-60
2021/09/10 03:20:00;;;;;;;7.10;6.40;;;20.90;99.90;;;;;;5093327;28;20020;-61
2021/09/10 03:22:25;;;;;;;7.50;6.15;;;20.80;99.90;;;;;;5091635;28;20149;-61
2021/09/10 03:24:51;;;;;;;8.55;6.75;;;20.80;99.90;;;;;;5093294;28;20510;-61
2021/09/10 03:27:17;;;;;;;9.93;7.07;;;20.90;99.90;;;;;;5091548;28;20081;-61
2021/09/10 03:29:43;;;;;;;6.82;6.07;;;20.80;99.90;;;;;;5093555;28;20069;-61
2021/09/10 03:32:09;;;;;;;9.75;7.20;;;20.80;99.90;;;;;;5092849;28;20032;-61
2021/09/10 03:34:34;;;;;;;7.43;6.05;;;20.90;99.90;;;;;;5093067;28;20032;-61
2021/09/10 03:37:00;;;;;;;7.97;6.88;;;20.80;99.90;;;;;;5093808;28;20035;-61
2021/09/10 03:39:25;;;;;;;9.60;6.18;;;20.80;99.90;;;;;;5092805;28;20024;-61
2021/09/10 03:41:51;;;;;;;8.45;5.95;;;20.90;99.90;;;;;;5091300;28;20043;-62
2021/09/10 03:44:17;;;;;;;8.57;6.60;;;20.90;99.90;;;;;;5074967;28;20059;-62
2021/09/10 03:46:42;;;;;;;10.27;6.35;;;20.80;99.90;;;;;;5093758;28;20057;-61
2021/09/10 03:49:08;;;;;;;8.98;6.38;;;20.90;99.90;;;;;;5091853;28;20465;-60
2021/09/10 03:51:34;;;;;;;10.23;6.57;;;20.90;99.90;;;;;;5092793;28;20030;-61
2021/09/10 03:53:59;;;;;;;8.65;6.38;;;20.90;99.90;;;;;;5092973;28;20083;-61
2021/09/10 03:56:25;;;;;;;9.88;6.38;;;20.90;99.90;;;;;;5092411;28;20245;-61
2021/09/10 03:58:51;;;;;;;7.65;6.13;;;20.80;99.90;;;;;;5074844;28;20377;-60
2021/09/10 04:01:17;;;;;;;8.48;6.20;;;20.80;99.90;;;;;;5091962;28;20024;-60
2021/09/10 04:03:43;;;;;;;7.20;5.93;;;20.80;99.90;;;;;;5092367;28;20064;-61
2021/09/10 04:06:10;;;;;;;11.57;6.95;;;20.90;99.90;;;;;;5090817;28;20039;-61
2021/09/10 04:08:36;;;;;;;6.75;5.55;;;20.90;99.90;;;;;;5092065;28;20449;-61
2021/09/10 04:11:02;;;;;;;10.30;6.68;;;20.90;99.90;;;;;;5092683;28;20016;-60
2021/09/10 04:13:28;;;;;;;13.85;7.10;;;20.90;99.90;;;;;;5090529;28;20035;-60
2021/09/10 04:15:54;;;;;;;8.68;6.60;;;20.90;99.90;;;;;;5092574;28;20523;-61
2021/09/10 04:18:19;;;;;;;6.97;6.28;;;20.90;99.90;;;;;;5090748;28;20024;-61
2021/09/10 04:20:45;;;;;;;8.13;7.13;;;20.80;99.90;;;;;;5092667;28;20031;-61
2021/09/10 04:23:11;;;;;;;9.15;7.22;;;20.80;99.90;;;;;;5090457;28;20039;-62
2021/09/10 04:25:36;;;;;;;7.68;6.40;;;20.80;99.90;;;;;;5090566;28;20048;-61
2021/09/10 04:28:02;;;;;;;9.93;6.40;;;20.90;99.90;;;;;;5092048;28;20024;-60
2021/09/10 04:30:28;;;;;;;8.75;6.82;;;20.70;99.90;;;;;;5090390;28;20032;-60
2021/09/10 04:32:53;;;;;;;7.68;6.80;;;20.60;99.90;;;;;;5092500;28;20126;-60
2021/09/10 04:35:19;;;;;;;9.82;7.15;;;20.60;99.90;;;;;;5091324;28;20032;-63
2021/09/10 04:37:45;;;;;;;7.40;6.55;;;20.50;99.90;;;;;;5091859;28;20358;-60
2021/09/10 04:40:11;;;;;;;9.88;7.55;;;20.60;99.90;;;;;;5091393;28;20026;-61
2021/09/10 04:42:38;;;;;;;9.98;6.25;;;20.60;99.90;;;;;;5092023;28;20081;-60
2021/09/10 04:45:04;;;;;;;9.10;6.47;;;20.60;99.90;;;;;;5090450;28;20025;-60
2021/09/10 04:47:30;;;;;;;8.25;6.28;;;20.60;99.90;;;;;;5090028;28;20035;-61
2021/09/10 04:49:56;;;;;;;9.02;6.95;;;20.60;99.90;;;;;;5091441;28;20023;-61
2021/09/10 04:52:21;;;;;;;9.90;6.93;;;20.50;99.90;;;;;;5091173;28;20032;-62
2021/09/10 04:54:47;;;;;;;9.88;5.47;;;20.60;99.90;;;;;;5092082;28;20028;-60
2021/09/10 04:57:13;;;;;;;8.23;6.68;;;20.60;99.90;;;;;;5089991;28;20084;-61
2021/09/10 04:59:38;;;;;;;11.18;6.90;;;20.50;99.90;;;;;;5091755;28;20103;-61
2021/09/10 05:02:04;;;;;;;9.00;6.30;;;20.40;99.90;;;;;;5091769;28;20040;-61
2021/09/10 05:04:30;;;;;;;9.93;6.68;;;20.40;99.90;;;;;;5090740;28;20036;-60
2021/09/10 05:06:56;;;;;;;8.75;6.70;;;20.40;99.90;;;;;;5090304;28;20074;-60
2021/09/10 05:09:22;;;;;;;9.00;7.03;;;20.40;99.90;;;;;;5090731;28;20032;-61
2021/09/10 05:11:48;;;;;;;9.73;6.93;;;20.40;99.90;;;;;;5090093;28;20111;-60
2021/09/10 05:14:14;;;;;;;12.82;8.60;;;20.30;99.90;;;;;;5089998;28;20043;-62
2021/09/10 05:16:40;;;;;;;7.40;6.68;;;20.30;99.90;;;;;;5091695;28;20103;-61
2021/09/10 05:19:06;;;;;;;12.77;6.50;;;20.30;99.90;;;;;;5091147;28;20028;-62
2021/09/10 05:21:32;;;;;;;12.77;6.43;;;20.30;99.90;;;;;;5090961;28;20038;-61
2021/09/10 05:23:59;;;;;;;10.73;5.97;;;20.40;99.90;;;;;;5089799;28;20043;-67
2021/09/10 05:26:25;;;;;;;12.98;6.30;;;20.60;99.90;;;;;;5090540;28;20024;-60
2021/09/10 05:28:51;;;;;;;13.35;6.30;;;20.60;99.90;;;;;;5091503;28;20028;-61
2021/09/10 05:31:16;;;;;;;10.30;6.95;;;20.60;99.90;;;;;;5090699;28;20035;-61
2021/09/10 05:33:42;;;;;;;10.35;6.70;;;20.60;99.90;;;;;;5089760;28;20036;-61
2021/09/10 05:36:08;;;;;;;9.00;6.85;;;20.50;99.90;;;;;;5091127;28;20035;-61
2021/09/10 05:38:34;;;;;;;10.30;6.35;;;20.40;99.90;;;;;;5088598;28;20028;-61
2021/09/10 05:40:59;;;;;;;7.68;6.47;;;20.50;99.90;;;;;;5090862;28;20069;-61
2021/09/10 05:43:25;;;;;;;9.38;6.63;;;20.60;99.90;;;;;;5088908;28;20035;-62
2021/09/10 05:45:51;;;;;;;9.20;6.22;;;20.60;99.90;;;;;;5089560;28;20119;-62
2021/09/10 05:48:19;;;;;;;7.82;6.50;;;20.60;99.90;;;;;;5090020;28;20086;-62
2021/09/10 05:50:49;;;;;;;9.20;6.88;;;20.70;99.90;;;;;;5089421;28;20068;-60
2021/09/10 05:53:16;;;;;;;10.32;6.45;;;20.80;99.90;;;;;;5088656;28;20030;-60
2021/09/10 05:55:41;;;;;;;7.65;6.45;;;20.80;99.90;;;;;;5089188;28;20043;-62
2021/09/10 05:58:07;;;;;;;10.50;6.03;;;20.80;99.90;;;;;;5088699;28;20465;-62
2021/09/10 06:00:33;;;;;;;8.38;7.03;;;20.80;99.90;;;;;;5089942;28;20032;-62
2021/09/10 06:02:59;;;;;;;9.50;5.97;;;20.90;99.90;;;;;;5090643;28;20047;-62
2021/09/10 06:05:25;;;;;;;9.80;7.03;;;20.90;99.90;;;;;;5090151;28;20077;-61
2021/09/10 06:07:50;;;;;;;16.63;7.82;;;21.00;99.90;;;;;;5090420;28;20103;-61
2021/09/10 06:10:18;;;;;;;10.88;6.68;;;21.00;99.90;;;;;;5088522;28;20028;-62
2021/09/10 06:12:45;;;;;;;8.70;6.47;;;21.00;99.90;;;;;;5090205;28;20020;-61
2021/09/10 06:15:12;;;;;;;11.43;6.35;;;21.00;99.90;;;;;;5088920;28;20043;-61
2021/09/10 06:17:37;;;;;;;8.07;6.50;;;20.90;99.90;;;;;;5088766;28;20031;-62
2021/09/10 06:20:04;;;;;;;10.23;6.57;;;21.00;99.90;;;;;;5086629;28;20024;-62
2021/09/10 06:22:31;;;;;;;18.15;7.95;;;21.10;99.90;;;;;;5089414;28;20066;-63
2021/09/10 06:24:58;;;;;;;14.48;7.85;;;21.20;99.90;;;;;;5090289;28;20044;-62
2021/09/10 06:27:24;;;;;;;13.07;7.20;;;21.20;99.90;;;;;;5092130;28;20027;-61
2021/09/10 06:29:50;;;;;;;12.50;6.82;;;21.40;99.90;;;;;;5092628;28;20035;-71
2021/09/10 06:32:15;;;;;;;6.95;5.28;;;21.50;99.90;;;;;;5085524;28;20033;-70
2021/09/10 06:34:41;;;;;;;8.30;4.78;;;21.80;99.90;;;;;;5092114;28;20407;-53
2021/09/10 06:37:07;;;;;;;5.20;4.57;;;22.20;99.90;;;;;;5074049;28;20028;-53
2021/09/10 06:39:34;;;;;;;7.55;5.18;;;22.40;99.90;;;;;;5072491;28;20030;-53
2021/09/10 06:41:59;;;;;;;9.25;5.55;;;22.70;99.10;;;;;;5078170;28;20181;-53
2021/09/10 06:44:25;;;;;;;8.90;5.95;;;22.50;98.70;;;;;;5090831;28;20528;-55
2021/09/10 06:46:51;;;;;;;9.02;6.75;;;22.80;98.70;;;;;;5090189;28;20036;-52
2021/09/10 06:49:17;;;;;;;10.80;5.35;;;23.00;97.70;;;;;;5091566;28;20032;-59
2021/09/10 06:51:42;;;;;;;8.15;6.88;;;23.20;98.00;;;;;;5090216;28;20050;-54
2021/09/10 06:54:08;;;;;;;10.88;6.10;;;23.00;97.30;;;;;;5092033;28;20392;-52
2021/09/10 06:56:35;;;;;;;6.82;5.60;;;23.20;97.40;;;;;;5089190;28;20264;-52
2021/09/10 06:59:00;;;;;;;12.73;6.70;;;23.10;97.40;;;;;;5091818;28;20107;-54
2021/09/10 07:01:26;;;;;;;8.05;6.10;;;23.10;97.50;;;;;;5088770;28;20115;-54
2021/09/10 07:03:52;;;;;;;10.70;6.57;;;23.20;97.10;;;;;;5083246;28;20509;-53
2021/09/10 07:06:18;;;;;;;8.70;6.10;;;22.90;97.20;;;;;;5088161;28;20023;-52
2021/09/10 07:08:44;;;;;;;9.60;5.78;;;23.10;97.30;;;;;;5089998;28;20024;-53
2021/09/10 07:11:10;;;;;;;8.85;5.55;;;23.00;97.40;;;;;;5083848;28;20047;-52
2021/09/10 07:13:36;;;;;;;9.65;6.18;;;23.10;97.50;;;;;;5089080;28;20093;-54
2021/09/10 07:16:01;;;;;;;6.18;5.57;;;22.80;97.50;;;;;;5088719;28;20024;-53
2021/09/10 07:18:27;;;;;;;10.82;6.15;;;22.60;97.90;;;;;;5092075;28;20100;-54
2021/09/10 07:20:53;;;;;;;7.43;6.07;;;22.90;97.60;;;;;;5090230;28;20131;-54
2021/09/10 07:23:19;;;;;;;8.35;6.50;;;23.10;97.30;;;;;;5090468;28;20115;-59
2021/09/10 07:25:44;;;;;;;8.52;6.25;;;23.00;97.10;;;;;;5089409;28;20048;-53
2021/09/10 07:28:10;;;;;;;9.18;6.18;;;23.10;97.00;;;;;;5089450;28;20032;-53
2021/09/10 07:30:36;;;;;;;19.92;6.30;;;23.40;97.00;;;;;;5089263;28;20615;-53
2021/09/10 07:33:01;;;;;;;9.65;5.90;;;23.70;95.90;;;;;;5088551;28;20066;-52
2021/09/10 07:35:27;;;;;;;14.07;6.00;;;23.70;96.20;;;;;;5089642;28;20040;-52
2021/09/10 07:37:53;;;;;;;13.40;6.32;;;23.80;96.10;;;;;;5089178;28;20020;-54
2021/09/10 07:40:19;;;;;;;11.27;5.95;;;24.10;95.40;;;;;;5089456;28;20021;-52
2021/09/10 07:42:45;;;;;;;5.60;4.55;;;24.30;95.30;;;;;;5091330;28;20047;-57
2021/09/10 07:45:12;;;;;;;8.07;5.00;;;24.60;95.30;;;;;;5091748;28;20024;-52
2021/09/10 07:47:41;;;;;;;8.57;4.63;;;24.90;94.90;;;;;;5090855;28;20074;-55
2021/09/10 07:50:08;;;;;;;13.15;6.50;;;24.90;94.70;;;;;;5086205;28;20028;-54
2021/09/10 07:52:34;;;;;;;11.77;5.88;;;24.60;94.80;;;;;;5073118;28;20549;-54
2021/09/10 07:55:00;;;;;;;8.82;5.18;;;24.80;94.90;;;;;;5089687;28;20109;-53
2021/09/10 07:57:26;;;;;;;6.63;5.00;;;25.10;94.60;;;;;;5088831;28;20622;-55
2021/09/10 07:59:55;;;;;;;6.07;5.03;;;25.00;94.40;;;;;;5090764;28;20020;-51
2021/09/10 08:02:22;;;;;;;5.57;5.07;;;24.90;94.60;;;;;;5089441;28;20024;-55
2021/09/10 08:04:48;;;;;;;6.80;6.03;;;24.80;94.70;;;;;;5088889;28;20393;-54
2021/09/10 08:07:14;;;;;;;9.57;5.75;;;24.60;94.60;;;;;;5087744;28;20024;-54
2021/09/10 08:09:39;;;;;;;5.80;5.20;;;24.60;94.80;;;;;;5088178;28;20100;-54
2021/09/10 08:12:05;;;;;;;7.65;5.35;;;24.50;94.80;;;;;;5089339;28;20552;-55
2021/09/10 08:14:31;;;;;;;7.65;5.38;;;24.60;95.00;;;;;;5087574;28;20161;-54
2021/09/10 08:16:57;;;;;;;12.55;4.95;;;24.50;94.60;;;;;;5089030;28;20016;-54
2021/09/10 08:19:23;;;;;;;6.20;4.63;;;24.50;94.90;;;;;;5070882;28;20111;-52
2021/09/10 08:21:49;;;;;;;8.65;5.20;;;24.90;94.70;;;;;;5089759;28;20158;-53
2021/09/10 08:24:15;;;;;;;7.10;4.38;;;25.10;94.00;;;;;;5089555;28;20349;-58
2021/09/10 08:26:41;;;;;;;5.95;4.88;;;25.20;93.80;;;;;;5089619;28;20450;-54
2021/09/10 08:29:06;;;;;;;8.65;5.30;;;24.70;93.80;;;;;;5079793;28;20394;-53
2021/09/10 08:31:32;;;;;;;6.75;4.97;;;24.30;94.70;;;;;;5069820;28;20051;-53
2021/09/10 08:33:58;;;;;;;9.38;4.40;;;23.80;95.30;;;;;;5068678;28;20045;-55
2021/09/10 08:36:23;;;;;;;6.95;4.75;;;23.90;95.70;;;;;;5067292;28;20033;-52
2021/09/10 08:38:49;;;;;;;7.63;5.00;;;24.10;95.40;;;;;;5070316;28;20104;-53
2021/09/10 08:41:18;;;;;;;5.53;5.03;;;24.20;95.20;;;;;;5069194;28;20078;-52
2021/09/10 08:43:48;;;;;;;8.73;4.63;;;24.60;94.90;;;;;;5068524;28;20028;-52
2021/09/10 08:46:15;;;;;;;9.55;4.80;;;24.60;94.40;;;;;;5077972;28;20107;-53
2021/09/10 08:48:45;;;;;;;7.63;4.80;;;24.80;93.90;;;;;;5088373;28;20032;-52
2021/09/10 08:51:12;;;;;;;4.88;4.40;;;25.00;93.80;;;;;;5086797;28;20376;-52
2021/09/10 08:53:38;;;;;;;4.80;4.22;;;24.80;93.80;;;;;;5071307;28;20085;-52
2021/09/10 08:56:03;;;;;;;7.20;4.35;;;24.90;93.90;;;;;;5089124;28;20024;-54
2021/09/10 08:58:29;;;;;;;5.97;4.55;;;25.20;93.90;;;;;;5088003;28;20108;-53
2021/09/10 09:01:00;;;;;;;5.20;4.20;;;25.00;93.70;;;;;;5077166;28;20028;-53
2021/09/10 09:03:32;;;;;;;4.55;4.10;;;25.20;93.50;;;;;;5052798;28;20086;-52
2021/09/10 09:05:58;;;;;;;6.10;4.80;;;24.90;93.70;;;;;;5069277;28;20120;-51
2021/09/10 09:08:25;;;;;;;6.53;3.92;;;24.90;93.80;;;;;;5068395;28;20419;-52
2021/09/10 09:11:05;;;;;;;7.32;4.72;;;24.80;94.00;;;;;;5070350;28;20032;-52
2021/09/10 09:13:42;;;;;;;6.75;4.80;;;24.70;94.00;;;;;;5069594;28;20037;-52
2021/09/10 09:16:19;;;;;;;8.70;4.43;;;24.80;94.20;;;;;;5078593;28;20038;-54
2021/09/10 09:19:00;;;;;;;5.45;4.20;;;24.80;94.20;;;;;;5072607;28;20032;-53
2021/09/10 09:21:35;;;;;;;7.70;4.57;;;24.90;94.50;;;;;;5088547;28;20475;-53
2021/09/10 09:24:21;;;;;;;10.45;5.72;;;25.50;94.10;;;;;;5089621;28;20536;-52
2021/09/10 09:26:52;;;;;;;20.92;6.05;;;25.60;93.60;;;;;;5087906;28;20496;-52
2021/09/10 09:29:19;;;;;;;7.47;4.30;;;25.50;93.80;;;;;;5089299;28;20515;-57
2021/09/10 09:32:00;;;;;;;8.50;4.45;;;25.10;94.10;;;;;;5089499;28;20118;-51
2021/09/10 09:34:49;;;;;;;8.85;4.75;;;25.10;94.40;;;;;;5071674;28;20055;-51
2021/09/10 09:37:24;;;;;;;4.45;4.00;;;25.10;94.30;;;;;;5083693;28;20077;-51
2021/09/10 09:39:55;;;;;;;7.53;5.50;;;25.00;94.80;;;;;;5088094;28;20036;-51
2021/09/10 09:42:29;;;;;;;13.40;5.07;;;25.00;94.60;;;;;;5089470;28;20029;-51
2021/09/10 09:45:24;;;;;;;5.68;4.68;;;24.90;95.00;;;;;;5088857;28;20047;-52
2021/09/10 09:47:51;;;;;;;10.00;4.72;;;24.90;94.40;;;;;;5088749;28;20060;-51
2021/09/10 09:50:21;;;;;;;6.20;5.10;;;24.90;94.60;;;;;;5070277;28;20028;-53
2021/09/10 09:52:49;;;;;;;6.40;5.45;;;24.90;95.00;;;;;;5069143;28;20410;-52
2021/09/10 09:55:15;;;;;;;9.18;4.35;;;24.90;94.80;;;;;;5070407;28;20025;-53
2021/09/10 09:57:43;;;;;;;7.25;4.35;;;25.00;94.50;;;;;;5068028;28;20063;-52
2021/09/10 10:00:09;;;;;;;5.45;4.28;;;25.00;94.70;;;;;;5069447;28;20036;-54
2021/09/10 10:02:36;;;;;;;6.18;4.72;;;25.00;94.60;;;;;;5071601;28;20037;-53
2021/09/10 10:05:03;;;;;;;5.53;4.18;;;24.90;94.60;;;;;;5073606;28;20028;-52
2021/09/10 10:07:37;;;;;;;6.13;4.40;;;25.00;94.40;;;;;;5073371;28;20033;-53
2021/09/10 10:10:06;;;;;;;7.97;5.22;;;25.00;94.60;;;;;;5072079;28;20052;-52
2021/09/10 10:12:32;;;;;;;7.47;5.00;;;24.80;94.50;;;;;;5071850;28;20169;-53
2021/09/10 10:15:19;;;;;;;8.98;5.63;;;24.70;94.80;;;;;;5072446;28;20123;-54
2021/09/10 10:17:45;;;;;;;5.80;5.10;;;24.60;94.80;;;;;;5061713;28;20055;-50
2021/09/10 10:20:14;;;;;;;10.52;4.55;;;24.50;94.70;;;;;;5072231;28;20116;-48
2021/09/10 10:22:41;;;;;;;8.90;5.15;;;24.20;95.00;;;;;;5071458;28;20044;-51
2021/09/10 10:25:11;;;;;;;9.77;5.07;;;24.20;96.10;;;;;;5073132;28;20064;-52
2021/09/10 10:27:37;;;;;;;6.78;4.82;;;24.30;95.80;;;;;;5072941;28;20424;-50
2021/09/10 10:30:09;;;;;;;11.68;5.50;;;24.30;95.70;;;;;;5073297;28;20032;-50
2021/09/10 10:32:40;;;;;;;8.15;4.70;;;24.20;95.50;;;;;;5070741;28;20058;-50
2021/09/10 10:35:49;;;;;;;12.30;6.35;;;24.20;95.60;;;;;;5072053;28;20025;-52
2021/09/10 10:38:14;;;;;;;8.57;5.40;;;24.40;98.20;;;;;;5062351;28;20048;-57
2021/09/10 10:40:58;;;;;;;15.85;5.82;;;24.40;98.20;;;;;;5091211;28;20498;-54
2021/09/10 10:43:29;;;;;;;11.75;5.53;;;24.50;98.50;;;;;;5090218;28;20429;-55
2021/09/10 10:46:07;;;;;;;8.90;5.90;;;24.70;97.40;;;;;;5093121;28;20411;-53
2021/09/10 10:48:33;;;;;;;8.50;5.00;;;24.60;98.90;;;;;;5090841;28;20030;-53
2021/09/10 10:51:01;;;;;;;7.63;5.20;;;24.40;96.20;;;;;;5091661;28;20104;-53
2021/09/10 10:53:39;;;;;;;8.02;5.50;;;24.50;98.60;;;;;;5092347;28;20028;-53
2021/09/10 10:56:24;;;;;;;7.82;6.05;;;24.50;97.90;;;;;;5091726;28;20024;-54
2021/09/10 10:59:12;;;;;;;5.22;4.70;;;24.70;97.50;;;;;;5091494;28;20469;-55
2021/09/10 11:02:15;;;;;;;4.88;4.40;;;24.60;95.50;;;;;;5089663;28;21424;-52
2021/09/10 11:04:51;;;;;;;7.05;3.85;;;24.80;95.70;;;;;;5090138;28;20535;-55
2021/09/10 11:07:22;;;;;;;5.10;4.03;;;24.90;94.20;;;;;;5091174;28;20024;-53
2021/09/10 11:10:14;;;;;;;4.75;3.92;;;25.00;94.50;;;;;;5089769;28;20020;-54
2021/09/10 11:12:42;;;;;;;4.95;3.70;;;25.00;93.80;;;;;;5088292;28;20036;-55
2021/09/10 11:15:20;;;;;;;5.47;4.47;;;25.10;94.90;;;;;;5089930;28;20097;-53
2021/09/10 11:17:58;;;;;;;3.90;3.40;;;25.00;94.70;;;;;;5086582;28;20855;-53
2021/09/10 11:20:26;;;;;;;7.07;3.95;;;25.10;94.10;;;;;;5090192;28;20047;-60
2021/09/10 11:22:51;;;;;;;10.48;4.68;;;25.10;93.90;;;;;;5090191;28;20483;-54
2021/09/10 11:25:17;;;;;;;8.25;3.70;;;25.10;94.40;;;;;;5090995;28;20063;-54
2021/09/10 11:27:43;;;;;;;6.18;3.88;;;25.20;93.60;;;;;;5089653;28;20266;-53
2021/09/10 11:30:11;;;;;;;7.32;4.53;;;25.30;93.50;;;;;;5089107;28;20339;-54
2021/09/10 11:32:37;;;;;;;6.90;4.05;;;25.50;94.30;;;;;;5088522;28;20032;-56
2021/09/10 11:35:20;;;;;;;3.92;3.53;;;25.70;93.70;;;;;;5090469;28;20040;-55
2021/09/10 11:37:59;;;;;;;4.38;3.13;;;25.50;93.00;;;;;;5091193;28;20031;-55
2021/09/10 11:40:32;;;;;;;5.78;3.50;;;25.20;93.40;;;;;;5091071;28;20024;-59
2021/09/10 11:43:09;;;;;;;7.13;4.00;;;25.30;93.60;;;;;;5089773;28;20036;-56
2021/09/10 11:45:46;;;;;;;8.27;3.50;;;25.40;93.60;;;;;;5087353;28;20024;-56
2021/09/10 11:48:14;;;;;;;5.15;3.28;;;25.50;93.60;;;;;;5071093;28;20142;-55
2021/09/10 11:50:44;;;;;;;3.95;3.50;;;25.30;93.90;;;;;;5068403;28;20473;-55
2021/09/10 11:53:18;;;;;;;5.35;3.50;;;25.10;93.80;;;;;;5069445;28;20430;-56
2021/09/10 11:55:57;;;;;;;3.63;3.22;;;25.10;93.90;;;;;;5071052;28;20032;-56
2021/09/10 11:58:36;;;;;;;3.75;3.45;;;25.10;94.30;;;;;;5070017;28;20069;-58
2021/09/10 12:01:14;;;;;;;5.63;3.22;;;25.20;94.10;;;;;;5071662;28;20044;-53
2021/09/10 12:04:04;;;;;;;5.13;2.53;;;25.30;94.90;;;;;;5068925;28;20127;-53
2021/09/10 12:06:33;;;;;;;5.67;2.47;;;25.40;94.70;;;;;;5062929;28;20040;-53
2021/09/10 12:09:11;;;;;;;4.25;2.97;;;25.60;93.90;;;;;;5069772;28;20330;-53
2021/09/10 12:12:01;;;;;;;5.82;2.47;;;25.80;93.90;;;;;;5068470;28;20032;-53
2021/09/10 12:14:28;;;;;;;4.28;2.65;;;25.70;92.90;;;;;;5077299;28;20354;-52
2021/09/10 12:17:24;;;;;;;4.18;3.42;;;25.50;93.50;;;;;;5089300;28;20043;-52
2021/09/10 12:20:01;;;;;;;4.00;3.05;;;25.20;93.90;;;;;;5073359;28;20032;-52
2021/09/10 12:22:38;;;;;;;5.50;1.73;;;25.10;94.00;;;;;;5089090;28;20396;-71
2021/09/10 12:25:20;;;;;;;2.20;2.00;;;24.90;93.50;;;;;;5089399;28;20384;-68
2021/09/10 12:27:47;;;;;;;2.17;1.98;;;25.00;93.70;;;;;;5089966;28;20114;-70
2021/09/10 12:30:14;;;;;;;2.40;2.20;;;25.10;93.50;;;;;;5089559;28;20031;-67
2021/09/10 12:32:40;;;;;;;3.88;3.35;;;25.00;93.60;;;;;;5087662;28;20059;-70
2021/09/10 12:35:06;;;;;;;2.92;2.35;;;25.00;94.50;;;;;;5089830;28;20410;-68
2021/09/10 12:37:32;;;;;;;4.82;2.78;;;25.30;93.60;;;;;;5088197;28;20028;-69
2021/09/10 12:39:58;;;;;;;2.35;2.15;;;25.20;93.70;;;;;;5088804;28;20457;-69
2021/09/10 12:42:24;;;;;;;2.50;1.90;;;25.30;93.60;;;;;;5088362;28;20035;-69
2021/09/10 12:44:50;;;;;;;3.38;2.80;;;25.50;93.40;;;;;;5088166;28;20032;-69
2021/09/10 12:47:17;;;;;;;4.30;2.25;;;25.70;93.20;;;;;;5089666;28;20096;-69
2021/09/10 12:49:44;;;;;;;3.28;1.88;;;25.80;92.90;;;;;;5088880;28;20129;-68